Shrewton, United Kingdom
Current Conditions -  °F | °C
As of 11:50 AM on Saturday 20 Dec 2014 (Local Time) from EGDM Reporting Station
Overcast Overcast  
Wind Chill: 40°   Ceiling: 4200
Heat Index: 46°   Visibility: 6mi
Dew Point: 39°   Wind: 14mph
Humidity: 76%   Direction: 280°W
Pressure: 30.33"   Gusts: NA
Location:  51.19°N, 1.9°W
Report Text: EGDM 201150Z AUTO 28012KT 9999 OVC042/// 08/04 Q1027
Loading
Personal Weather Stations






























Interactive Weather Map New forecast layout! Learn more

10-Day Weather Forecast

Advertisements
Track Severe Weather on mobile